Time;durP1;ratioP1;P1;durP2;ratioP2;P2;SDS_P1;SDS_P2;PMS_P1;PMS_P2;Temp;Humidity;BMP_temperature;BMP_pressure;BME280_temperature;BME280_humidity;BME280_pressure;Samples;Min_cycle;Max_cycle;Signal;HPM_P1;HPM_P2
2023/12/16 00:00:16;;;;;;;33.70;18.38;;;5.40;99.90;;;;;;4969758;28;20027;-93
2023/12/16 00:02:42;;;;;;;32.65;19.23;;;5.40;99.90;;;;;;4965536;28;20031;-89
2023/12/16 00:05:08;;;;;;;32.28;19.85;;;5.40;99.90;;;;;;4964742;28;20398;-91
2023/12/16 00:07:34;;;;;;;35.20;19.90;;;5.40;99.90;;;;;;4960459;28;20027;-91
2023/12/16 00:10:00;;;;;;;35.35;17.05;;;5.50;99.90;;;;;;4963030;28;20217;-91
2023/12/16 00:12:25;;;;;;;35.42;18.70;;;5.50;99.90;;;;;;4949454;29;20043;-91
2023/12/16 00:14:51;;;;;;;36.50;18.80;;;5.50;99.90;;;;;;4960575;28;20026;-93
2023/12/16 00:17:22;;;;;;;32.03;17.90;;;5.50;99.90;;;;;;4971792;28;20046;-92
2023/12/16 00:19:47;;;;;;;34.38;19.25;;;5.50;99.90;;;;;;4958607;28;20641;-91
2023/12/16 00:22:13;;;;;;;29.83;17.20;;;5.50;99.90;;;;;;4967430;28;20035;-93
2023/12/16 00:24:39;;;;;;;31.95;17.55;;;5.50;99.90;;;;;;4975334;28;20164;-90
2023/12/16 00:27:07;;;;;;;32.70;18.52;;;5.50;99.90;;;;;;4969143;28;20035;-91
2023/12/16 00:29:33;;;;;;;31.02;17.25;;;5.50;99.90;;;;;;4974600;28;20026;-92
2023/12/16 00:31:58;;;;;;;31.23;16.98;;;5.50;99.90;;;;;;4973884;28;20142;-90
2023/12/16 00:34:24;;;;;;;34.65;17.63;;;5.50;99.90;;;;;;4975074;28;20022;-91
2023/12/16 00:36:50;;;;;;;30.08;17.15;;;5.50;99.90;;;;;;4938461;28;20134;-92
2023/12/16 00:39:15;;;;;;;38.13;18.38;;;5.50;99.90;;;;;;4972142;28;20031;-91
2023/12/16 00:41:42;;;;;;;36.28;17.30;;;5.50;99.90;;;;;;4969727;28;20031;-92
2023/12/16 00:44:08;;;;;;;29.67;16.77;;;5.50;99.90;;;;;;4967789;28;20030;-94
2023/12/16 00:46:34;;;;;;;34.95;16.90;;;5.50;99.90;;;;;;4957938;28;20034;-93
2023/12/16 00:49:02;;;;;;;34.15;18.02;;;5.50;99.90;;;;;;4966330;28;20053;-91
2023/12/16 00:51:28;;;;;;;38.60;18.60;;;5.50;99.90;;;;;;4968409;28;20031;-91
2023/12/16 00:53:53;;;;;;;34.75;17.05;;;5.40;99.90;;;;;;4963027;28;20482;-92
2023/12/16 00:56:19;;;;;;;34.95;19.95;;;5.40;99.90;;;;;;4967552;29;20283;-90
2023/12/16 00:58:45;;;;;;;37.83;17.52;;;5.50;99.90;;;;;;4975580;28;20027;-93
2023/12/16 01:01:14;;;;;;;33.17;17.45;;;5.50;99.90;;;;;;4946855;29;20059;-93
2023/12/16 01:03:40;;;;;;;33.75;17.88;;;5.50;99.90;;;;;;4973327;28;20027;-91
2023/12/16 01:06:06;;;;;;;35.78;18.88;;;5.50;99.90;;;;;;4976081;28;20023;-91
2023/12/16 01:08:33;;;;;;;33.67;17.70;;;5.50;99.90;;;;;;4978621;28;20046;-92
2023/12/16 01:10:59;;;;;;;36.38;18.65;;;5.50;99.90;;;;;;4979062;28;20015;-94
2023/12/16 01:13:25;;;;;;;36.25;17.90;;;5.60;99.90;;;;;;4978223;28;20023;-93
2023/12/16 01:15:51;;;;;;;30.48;17.00;;;5.60;99.90;;;;;;4968103;28;20034;-93
2023/12/16 01:18:16;;;;;;;34.33;20.88;;;5.50;99.90;;;;;;4965165;28;20406;-91
2023/12/16 01:20:42;;;;;;;37.20;18.70;;;5.60;99.90;;;;;;4956583;28;20052;-92
2023/12/16 01:23:08;;;;;;;36.17;18.83;;;5.50;99.90;;;;;;4967392;28;20028;-92
2023/12/16 01:25:33;;;;;;;38.92;18.45;;;5.60;99.90;;;;;;4972903;28;20023;-92
2023/12/16 01:27:59;;;;;;;31.17;16.48;;;5.60;99.90;;;;;;4961805;28;20054;-92
2023/12/16 01:30:25;;;;;;;37.63;19.90;;;5.60;99.90;;;;;;4954709;28;20034;-92
2023/12/16 01:32:51;;;;;;;36.13;18.35;;;5.60;99.90;;;;;;4966355;28;20019;-94
2023/12/16 01:35:17;;;;;;;32.75;17.77;;;5.60;99.90;;;;;;4947854;29;20024;-93
2023/12/16 01:37:43;;;;;;;38.47;18.48;;;5.60;99.90;;;;;;4959086;28;20490;-92
2023/12/16 01:40:09;;;;;;;37.45;17.95;;;5.60;99.90;;;;;;4955347;29;20126;-91
2023/12/16 01:42:34;;;;;;;35.88;17.77;;;5.50;99.90;;;;;;4966765;28;20031;-92
2023/12/16 01:45:00;;;;;;;36.05;18.23;;;5.50;99.90;;;;;;4962177;28;20083;-89
2023/12/16 01:47:26;;;;;;;35.33;19.05;;;5.50;99.90;;;;;;4969410;28;20502;-92
2023/12/16 01:49:52;;;;;;;34.03;17.67;;;5.50;99.90;;;;;;4963010;28;20034;-91
2023/12/16 01:52:19;;;;;;;31.63;19.10;;;5.50;99.90;;;;;;4973846;28;20382;-92
2023/12/16 01:54:45;;;;;;;27.17;14.88;;;5.50;99.90;;;;;;4968185;28;20018;-91
2023/12/16 01:57:11;;;;;;;30.52;16.80;;;5.50;99.90;;;;;;4979416;28;20027;-93
2023/12/16 01:59:36;;;;;;;30.00;16.50;;;5.50;99.90;;;;;;4966120;28;20028;-93
2023/12/16 02:02:06;;;;;;;26.92;15.40;;;5.40;99.90;;;;;;4938760;29;20070;-92
2023/12/16 02:04:37;;;;;;;31.08;15.80;;;5.50;99.90;;;;;;4970554;28;20047;-91
2023/12/16 02:07:04;;;;;;;30.90;16.38;;;5.40;99.90;;;;;;4971995;28;20031;-92
2023/12/16 02:09:31;;;;;;;28.00;16.58;;;5.40;99.90;;;;;;4965796;29;20078;-91
2023/12/16 02:11:57;;;;;;;27.85;17.23;;;5.40;99.90;;;;;;4970429;28;20054;-92
2023/12/16 02:14:23;;;;;;;30.52;16.50;;;5.40;99.90;;;;;;4951946;29;20039;-93
2023/12/16 02:16:51;;;;;;;26.35;15.85;;;5.40;99.90;;;;;;4966008;28;20035;-92
2023/12/16 02:19:25;;;;;;;31.05;17.27;;;5.40;99.90;;;;;;4965937;28;20037;-93
2023/12/16 02:21:51;;;;;;;30.42;15.90;;;5.40;99.90;;;;;;4968626;28;20090;-93
2023/12/16 02:24:17;;;;;;;27.98;16.65;;;5.50;99.90;;;;;;4958922;28;20109;-92
2023/12/16 02:26:42;;;;;;;28.55;16.90;;;5.50;99.90;;;;;;4971465;28;20023;-91
2023/12/16 02:29:08;;;;;;;30.88;17.35;;;5.50;99.90;;;;;;4934906;29;20043;-93
2023/12/16 02:31:34;;;;;;;27.92;15.98;;;5.50;99.90;;;;;;4978937;28;20095;-91
2023/12/16 02:33:59;;;;;;;29.13;16.30;;;5.50;99.90;;;;;;4973556;28;20027;-92
2023/12/16 02:36:25;;;;;;;31.23;16.27;;;5.50;99.90;;;;;;4976886;28;20086;-93
2023/12/16 02:38:51;;;;;;;28.42;15.35;;;5.40;99.90;;;;;;4966267;28;20031;-91
2023/12/16 02:41:16;;;;;;;28.60;17.08;;;5.40;99.90;;;;;;4970175;28;20039;-92
2023/12/16 02:43:42;;;;;;;31.42;18.65;;;5.40;99.90;;;;;;4970942;28;20031;-91
2023/12/16 02:46:09;;;;;;;34.33;17.23;;;5.40;99.90;;;;;;4979638;28;20062;-91
2023/12/16 02:48:35;;;;;;;32.72;18.55;;;5.40;99.90;;;;;;4968596;28;20031;-90
2023/12/16 02:51:00;;;;;;;30.20;16.60;;;5.40;99.90;;;;;;4969631;28;20498;-90
2023/12/16 02:53:27;;;;;;;30.33;16.48;;;5.50;99.90;;;;;;4975746;28;20023;-91
2023/12/16 02:55:53;;;;;;;29.48;16.10;;;5.50;99.90;;;;;;4964730;29;20071;-93
2023/12/16 02:58:19;;;;;;;33.97;17.65;;;5.50;99.90;;;;;;4966852;28;20064;-91
2023/12/16 03:00:44;;;;;;;30.13;17.15;;;5.50;99.90;;;;;;4978893;28;20094;-92
2023/12/16 03:03:10;;;;;;;30.95;20.60;;;5.50;99.90;;;;;;4969273;29;20557;-93
2023/12/16 03:05:36;;;;;;;32.90;17.77;;;5.50;99.90;;;;;;4968347;29;20028;-90
2023/12/16 03:08:02;;;;;;;32.85;16.95;;;5.50;99.90;;;;;;4976712;28;20033;-89
2023/12/16 03:10:27;;;;;;;29.08;16.48;;;5.50;99.90;;;;;;4968086;28;20030;-91
2023/12/16 03:12:53;;;;;;;31.73;16.52;;;5.50;99.90;;;;;;4970861;28;20029;-93
2023/12/16 03:15:19;;;;;;;33.75;16.02;;;5.50;99.90;;;;;;4952508;29;20087;-93
2023/12/16 03:17:45;;;;;;;28.85;15.75;;;5.40;99.90;;;;;;4959080;28;20007;-91
2023/12/16 03:20:11;;;;;;;32.33;16.90;;;5.40;99.90;;;;;;4980698;28;20034;-92
2023/12/16 03:22:37;;;;;;;28.90;15.55;;;5.40;99.90;;;;;;4957098;28;20035;-94
2023/12/16 03:25:03;;;;;;;32.85;16.42;;;5.40;99.90;;;;;;4953185;28;20120;-92
2023/12/16 03:27:29;;;;;;;29.60;15.30;;;5.40;99.90;;;;;;4957897;28;20024;-94
2023/12/16 03:30:02;;;;;;;27.67;16.02;;;5.40;99.90;;;;;;4963351;28;20031;-91
2023/12/16 03:32:27;;;;;;;28.85;15.30;;;5.40;99.90;;;;;;4968518;29;20051;-94
2023/12/16 03:34:53;;;;;;;31.00;17.17;;;5.40;99.90;;;;;;4971244;28;20359;-92
2023/12/16 03:37:19;;;;;;;32.97;17.35;;;5.40;99.90;;;;;;4979900;28;20056;-89
2023/12/16 03:39:44;;;;;;;27.35;16.15;;;5.40;99.90;;;;;;4981561;28;20053;-92
2023/12/16 03:42:10;;;;;;;30.83;16.63;;;5.40;99.90;;;;;;4975047;28;20124;-92
2023/12/16 03:44:35;;;;;;;26.75;16.40;;;5.40;99.90;;;;;;4970929;28;20035;-92
2023/12/16 03:47:01;;;;;;;26.85;16.60;;;5.40;99.90;;;;;;4964853;28;20027;-92
2023/12/16 03:49:28;;;;;;;28.30;15.18;;;5.40;99.90;;;;;;4966217;28;20109;-93
2023/12/16 03:51:56;;;;;;;32.63;15.52;;;5.30;99.90;;;;;;4973141;28;20083;-92
2023/12/16 03:54:22;;;;;;;27.05;14.90;;;5.30;99.90;;;;;;4968607;28;20093;-94
2023/12/16 03:56:51;;;;;;;25.75;14.73;;;5.30;99.90;;;;;;4969821;28;20030;-90
2023/12/16 03:59:19;;;;;;;26.95;13.80;;;5.20;99.90;;;;;;4961575;28;20026;-93
2023/12/16 04:01:45;;;;;;;28.85;15.70;;;5.20;99.90;;;;;;4959256;29;20034;-93
2023/12/16 04:04:11;;;;;;;29.48;16.33;;;5.20;99.90;;;;;;4960234;28;20062;-93
2023/12/16 04:06:39;;;;;;;27.08;14.88;;;5.20;99.90;;;;;;4971358;28;20027;-91
2023/12/16 04:09:05;;;;;;;30.02;16.33;;;5.20;99.90;;;;;;4964608;28;20087;-92
2023/12/16 04:11:31;;;;;;;28.23;17.25;;;5.20;99.90;;;;;;4961427;28;20028;-92
2023/12/16 04:13:57;;;;;;;32.67;17.38;;;5.20;99.90;;;;;;4956862;28;20020;-92
2023/12/16 04:16:23;;;;;;;30.75;16.10;;;5.10;99.90;;;;;;4971199;28;20023;-92
2023/12/16 04:18:49;;;;;;;27.38;15.55;;;5.10;99.90;;;;;;4970644;28;20509;-92
2023/12/16 04:21:14;;;;;;;31.63;16.52;;;5.10;99.90;;;;;;4967758;28;20027;-89
2023/12/16 04:23:40;;;;;;;32.33;15.35;;;5.10;99.90;;;;;;4977672;28;20345;-91
2023/12/16 04:26:06;;;;;;;33.22;17.13;;;5.10;99.90;;;;;;4969933;28;20027;-93
2023/12/16 04:28:31;;;;;;;35.70;17.13;;;5.10;99.90;;;;;;4958852;28;20015;-94
2023/12/16 04:30:59;;;;;;;36.33;18.92;;;5.10;99.90;;;;;;4974542;28;20038;-94
2023/12/16 04:33:25;;;;;;;;;;;5.10;99.90;;;;;;4963687;28;20023;-93
2023/12/16 04:35:51;;;;;;;40.22;18.58;;;5.10;99.90;;;;;;4974174;28;19921;-91
2023/12/16 04:38:17;;;;;;;39.33;18.63;;;5.10;99.90;;;;;;4967705;28;20070;-91
2023/12/16 04:40:42;;;;;;;38.33;18.85;;;5.10;99.90;;;;;;4967911;28;20022;-90
2023/12/16 04:43:08;;;;;;;37.30;19.23;;;5.10;99.90;;;;;;4967945;28;20031;-92
2023/12/16 04:45:36;;;;;;;40.47;17.98;;;5.10;99.90;;;;;;4971428;28;20042;-92
2023/12/16 04:48:02;;;;;;;38.13;18.83;;;5.10;99.90;;;;;;4954142;28;20019;-91
2023/12/16 04:50:27;;;;;;;39.50;17.55;;;5.10;99.90;;;;;;4961365;28;20032;-94
2023/12/16 04:52:53;;;;;;;43.08;19.27;;;5.10;99.90;;;;;;4967279;28;20034;-92
2023/12/16 04:55:24;;;;;;;40.25;19.17;;;5.10;99.90;;;;;;4960946;29;20031;-93
2023/12/16 04:57:59;;;;;;;42.47;19.98;;;5.10;99.90;;;;;;4948665;28;20441;-92
2023/12/16 05:00:28;;;;;;;40.88;17.85;;;5.00;99.90;;;;;;4948275;29;20507;-92
2023/12/16 05:02:54;;;;;;;37.55;18.38;;;5.00;99.90;;;;;;4976926;28;20112;-91
2023/12/16 05:05:19;;;;;;;39.30;18.42;;;5.00;99.90;;;;;;4965518;29;20023;-91
2023/12/16 05:07:45;;;;;;;43.50;20.48;;;5.00;99.90;;;;;;4963364;28;20201;-92
2023/12/16 05:10:11;;;;;;;31.08;16.67;;;5.00;99.90;;;;;;4953250;28;20039;-95
2023/12/16 05:12:40;;;;;;;38.42;18.63;;;5.00;99.90;;;;;;4948666;28;20056;-92
2023/12/16 05:15:06;;;;;;;36.55;15.77;;;5.00;99.90;;;;;;4963720;28;20032;-89
2023/12/16 05:17:36;;;;;;;35.47;17.80;;;5.00;99.90;;;;;;4963089;28;20019;-92
2023/12/16 05:20:02;;;;;;;35.47;17.63;;;5.00;99.90;;;;;;4966909;29;20095;-92
2023/12/16 05:22:33;;;;;;;35.92;18.35;;;4.90;99.90;;;;;;4968872;28;20034;-94
2023/12/16 05:25:02;;;;;;;40.55;22.70;;;4.90;99.90;;;;;;4958837;28;20410;-92
2023/12/16 05:27:28;;;;;;;34.63;17.77;;;4.90;99.90;;;;;;4982426;28;20073;-92
2023/12/16 05:29:55;;;;;;;34.00;16.65;;;4.90;99.90;;;;;;4972191;28;20023;-92
2023/12/16 05:32:21;;;;;;;35.53;18.05;;;4.90;99.90;;;;;;4961496;28;20082;-92
2023/12/16 05:34:47;;;;;;;42.03;20.00;;;4.90;99.90;;;;;;4966568;29;20028;-91
2023/12/16 05:37:18;;;;;;;36.60;17.88;;;4.80;99.90;;;;;;4968640;28;20153;-90
2023/12/16 05:39:44;;;;;;;35.17;16.65;;;4.80;99.90;;;;;;4974290;28;20034;-91
2023/12/16 05:42:12;;;;;;;36.47;19.02;;;4.80;99.90;;;;;;4948336;29;20036;-91
2023/12/16 05:44:37;;;;;;;41.22;18.05;;;4.80;99.90;;;;;;4948866;29;20028;-91
2023/12/16 05:47:04;;;;;;;39.00;19.20;;;4.80;99.90;;;;;;4968745;28;20064;-91
2023/12/16 05:49:29;;;;;;;40.22;19.23;;;4.80;99.90;;;;;;4971614;28;20030;-91
2023/12/16 05:51:55;;;;;;;32.60;16.92;;;4.90;99.90;;;;;;4973181;28;20027;-90
2023/12/16 05:54:24;;;;;;;40.45;20.30;;;4.90;99.90;;;;;;4950091;29;20047;-92
2023/12/16 05:56:50;;;;;;;42.78;19.13;;;4.90;99.90;;;;;;4966967;28;20043;-90
2023/12/16 05:59:16;;;;;;;41.08;18.23;;;4.90;99.90;;;;;;4947743;29;20031;-90
2023/12/16 06:01:41;;;;;;;42.55;17.48;;;4.90;99.90;;;;;;4968058;28;20038;-91
2023/12/16 06:04:07;;;;;;;42.55;18.52;;;4.90;99.90;;;;;;4966337;28;20035;-92
2023/12/16 06:06:33;;;;;;;35.45;16.08;;;4.90;99.90;;;;;;4957480;28;20107;-93
2023/12/16 06:08:58;;;;;;;35.33;19.70;;;4.80;99.90;;;;;;4972380;28;20087;-92
2023/12/16 06:11:27;;;;;;;32.55;18.05;;;4.90;99.90;;;;;;4949423;29;20089;-91
2023/12/16 06:13:53;;;;;;;39.20;18.98;;;4.80;99.90;;;;;;4977118;28;20023;-93
2023/12/16 06:16:19;;;;;;;38.58;18.23;;;4.80;99.90;;;;;;4945450;29;20038;-93
2023/12/16 06:18:46;;;;;;;34.25;17.30;;;4.80;99.90;;;;;;4959120;29;20034;-92
2023/12/16 06:21:12;;;;;;;37.47;18.63;;;4.70;99.90;;;;;;4968230;28;20020;-92
2023/12/16 06:23:38;;;;;;;40.03;19.65;;;4.70;99.90;;;;;;4969301;28;20402;-92
2023/12/16 06:26:03;;;;;;;40.55;18.60;;;4.70;99.90;;;;;;4959805;28;20031;-92
2023/12/16 06:28:29;;;;;;;37.42;19.17;;;4.70;99.90;;;;;;4943376;29;20032;-91
2023/12/16 06:30:55;;;;;;;31.15;16.98;;;4.70;99.90;;;;;;4959546;29;20026;-93
2023/12/16 06:33:22;;;;;;;37.03;18.17;;;4.70;99.90;;;;;;4971537;28;20035;-92
2023/12/16 06:35:48;;;;;;;54.88;29.70;;;4.70;99.90;;;;;;4956725;28;20023;-92
2023/12/16 06:38:14;;;;;;;37.83;20.25;;;4.60;99.90;;;;;;4956376;28;20110;-92
2023/12/16 06:40:40;;;;;;;35.65;17.30;;;4.70;99.90;;;;;;4968951;28;20037;-91
2023/12/16 06:43:06;;;;;;;34.53;17.35;;;4.70;99.90;;;;;;4960565;28;20036;-90
2023/12/16 06:45:32;;;;;;;33.78;21.00;;;4.60;99.90;;;;;;4950962;28;20154;-91
2023/12/16 06:48:00;;;;;;;34.67;17.92;;;4.60;99.90;;;;;;4966255;28;20106;-92
2023/12/16 06:50:26;;;;;;;33.33;16.55;;;4.60;99.90;;;;;;4956663;29;20023;-91
2023/12/16 06:52:52;;;;;;;34.67;18.02;;;4.60;99.90;;;;;;4963263;29;20027;-94
2023/12/16 06:55:17;;;;;;;38.20;18.85;;;4.70;99.90;;;;;;4950242;29;20087;-92
2023/12/16 06:57:44;;;;;;;31.63;16.95;;;4.70;99.90;;;;;;4966526;28;20035;-93
2023/12/16 07:00:10;;;;;;;34.70;17.83;;;4.70;99.90;;;;;;4961972;28;20469;-92
2023/12/16 07:02:37;;;;;;;31.17;18.35;;;4.70;99.90;;;;;;4964281;28;20085;-93
2023/12/16 07:05:03;;;;;;;35.50;18.05;;;4.70;99.90;;;;;;4963958;28;20057;-91
2023/12/16 07:07:29;;;;;;;34.00;16.80;;;4.70;99.90;;;;;;4956927;28;20087;-92
2023/12/16 07:09:55;;;;;;;33.13;17.77;;;4.80;99.90;;;;;;4965751;28;20046;-92
2023/12/16 07:12:21;;;;;;;55.38;45.33;;;4.80;99.90;;;;;;4962934;28;20031;-92
2023/12/16 07:14:47;;;;;;;36.25;21.67;;;4.70;99.90;;;;;;4966821;28;20047;-92
2023/12/16 07:17:13;;;;;;;34.92;19.27;;;4.70;99.90;;;;;;4966546;28;20031;-91
2023/12/16 07:19:38;;;;;;;29.60;17.48;;;4.70;99.90;;;;;;4961797;28;20091;-92
2023/12/16 07:22:04;;;;;;;35.72;18.17;;;4.70;99.90;;;;;;4959935;28;20012;-93
2023/12/16 07:24:30;;;;;;;31.17;15.70;;;4.70;99.90;;;;;;4957899;28;20099;-91
2023/12/16 07:26:56;;;;;;;32.05;15.00;;;4.70;99.90;;;;;;4965193;28;20031;-92
2023/12/16 07:29:25;;;;;;;31.45;15.43;;;4.70;99.90;;;;;;4954256;29;20027;-92
2023/12/16 07:31:53;;;;;;;36.42;21.63;;;4.80;99.90;;;;;;4972426;28;20027;-92
2023/12/16 07:34:19;;;;;;;32.75;14.63;;;4.70;99.90;;;;;;4963249;28;20086;-92
2023/12/16 07:36:44;;;;;;;34.15;15.98;;;4.70;99.90;;;;;;4973679;28;20027;-94
2023/12/16 07:39:10;;;;;;;32.70;16.13;;;4.70;99.90;;;;;;4954592;29;20085;-91
2023/12/16 07:41:39;;;;;;;32.25;17.08;;;4.70;99.90;;;;;;4971113;28;20019;-93
2023/12/16 07:44:07;;;;;;;34.78;16.33;;;4.70;99.90;;;;;;4956584;28;20030;-92
2023/12/16 07:46:32;;;;;;;;;;;4.70;99.90;;;;;;4965046;28;20027;-94
2023/12/16 07:48:58;;;;;;;30.05;14.13;;;4.80;99.90;;;;;;4953788;28;19949;-91
2023/12/16 07:51:26;;;;;;;30.95;18.25;;;4.70;99.90;;;;;;4973501;28;20241;-91
2023/12/16 07:53:54;;;;;;;29.85;14.55;;;4.70;99.90;;;;;;4963094;29;20015;-94
2023/12/16 07:56:24;;;;;;;25.52;13.15;;;4.80;99.90;;;;;;4967936;28;20038;-93
2023/12/16 07:58:50;;;;;;;30.00;15.20;;;4.80;99.90;;;;;;4960106;28;20024;-95
2023/12/16 08:01:18;;;;;;;26.08;15.23;;;4.80;99.90;;;;;;4961925;28;20034;-91
2023/12/16 08:03:47;;;;;;;29.00;14.70;;;4.80;99.90;;;;;;4963725;28;20035;-92
2023/12/16 08:06:17;;;;;;;26.85;13.95;;;4.80;99.90;;;;;;4957969;28;20113;-93
2023/12/16 08:08:43;;;;;;;25.02;17.17;;;4.90;99.90;;;;;;4961162;28;20510;-94
2023/12/16 08:11:10;;;;;;;26.95;13.73;;;4.80;99.90;;;;;;4961994;28;20101;-94
2023/12/16 08:13:38;;;;;;;26.95;13.95;;;4.80;99.90;;;;;;4944466;29;20023;-93
2023/12/16 08:16:11;;;;;;;;;;;4.80;99.90;;;;;;4957717;28;20134;-92
2023/12/16 08:18:37;;;;;;;22.90;12.20;;;4.90;99.90;;;;;;4963977;29;19906;-92
2023/12/16 08:21:03;;;;;;;22.35;13.05;;;4.90;99.90;;;;;;4945469;29;20023;-92
2023/12/16 08:23:29;;;;;;;22.85;12.02;;;4.90;99.90;;;;;;4964039;28;20023;-93
2023/12/16 08:25:54;;;;;;;22.20;12.02;;;5.00;99.90;;;;;;4948225;28;20467;-93
2023/12/16 08:28:20;;;;;;;28.38;13.32;;;5.00;99.90;;;;;;4964729;28;20042;-93
2023/12/16 08:30:49;;;;;;;26.10;13.65;;;5.00;99.90;;;;;;4964085;29;20130;-92
2023/12/16 08:33:14;;;;;;;30.10;14.75;;;5.00;99.90;;;;;;4937241;29;20103;-92
2023/12/16 08:35:46;;;;;;;28.85;14.93;;;5.00;99.90;;;;;;4971595;28;20101;-93
2023/12/16 08:38:11;;;;;;;25.40;12.85;;;5.10;99.90;;;;;;4938708;29;20054;-94
2023/12/16 08:40:37;;;;;;;26.13;13.32;;;5.10;99.90;;;;;;4955911;28;20294;-92
2023/12/16 08:43:02;;;;;;;22.90;12.90;;;5.10;99.90;;;;;;4980153;28;20026;-91
2023/12/16 08:45:28;;;;;;;22.90;13.55;;;5.20;99.90;;;;;;4974622;28;20229;-94
2023/12/16 08:47:54;;;;;;;29.23;18.85;;;5.20;99.90;;;;;;4951138;28;20439;-93
2023/12/16 08:50:22;;;;;;;31.95;17.88;;;5.30;99.90;;;;;;4961552;29;20062;-92
2023/12/16 08:52:48;;;;;;;33.08;18.83;;;5.30;99.90;;;;;;4964813;28;20019;-92
2023/12/16 08:55:13;;;;;;;33.28;18.02;;;5.30;99.90;;;;;;4969568;28;20035;-93
2023/12/16 08:57:41;;;;;;;24.70;14.35;;;5.40;99.90;;;;;;4955201;28;20078;-92
2023/12/16 09:00:08;;;;;;;26.05;15.38;;;5.40;99.90;;;;;;4942197;29;20035;-92
2023/12/16 09:02:34;;;;;;;22.27;14.75;;;5.40;99.90;;;;;;4956935;29;20033;-92
2023/12/16 09:05:00;;;;;;;27.65;15.02;;;5.50;99.90;;;;;;4959177;28;20086;-90
2023/12/16 09:07:28;;;;;;;31.33;15.48;;;5.50;99.90;;;;;;4951158;28;20034;-93
2023/12/16 09:09:54;;;;;;;25.85;14.93;;;5.50;99.90;;;;;;4958131;28;20044;-92
2023/12/16 09:12:19;;;;;;;29.55;17.52;;;5.50;99.90;;;;;;4955856;28;20032;-94
2023/12/16 09:14:45;;;;;;;26.85;13.63;;;5.60;99.90;;;;;;4957440;28;20032;-91
2023/12/16 09:17:11;;;;;;;28.08;15.75;;;5.70;99.90;;;;;;4953070;28;20049;-93
2023/12/16 09:19:36;;;;;;;24.75;13.27;;;5.70;99.90;;;;;;4959393;28;20053;-92
2023/12/16 09:22:02;;;;;;;21.30;11.50;;;5.70;99.90;;;;;;4963096;28;20032;-92
2023/12/16 09:24:28;;;;;;;36.33;18.48;;;5.70;99.90;;;;;;4947006;28;20091;-93
2023/12/16 09:26:56;;;;;;;31.13;18.25;;;5.80;99.90;;;;;;4952451;28;20065;-94
2023/12/16 09:29:22;;;;;;;30.83;17.85;;;5.80;99.90;;;;;;4968073;28;20371;-94
2023/12/16 09:31:50;;;;;;;24.90;12.68;;;5.90;99.90;;;;;;4960661;28;20102;-92
2023/12/16 09:34:16;;;;;;;24.63;13.25;;;5.80;99.90;;;;;;4954929;28;20031;-91
2023/12/16 09:36:42;;;;;;;24.95;13.68;;;5.90;99.90;;;;;;4946726;28;20024;-91
2023/12/16 09:39:10;;;;;;;24.58;12.93;;;5.90;99.90;;;;;;4953253;28;20027;-91
2023/12/16 09:41:42;;;;;;;;;;;6.00;99.90;;;;;;4967249;28;20047;-92
2023/12/16 09:44:12;;;;;;;25.02;12.65;;;6.10;99.90;;;;;;4960239;28;19906;-91
2023/12/16 09:46:39;;;;;;;24.85;12.98;;;6.00;99.90;;;;;;4964058;28;20122;-93
2023/12/16 09:49:05;;;;;;;25.88;13.55;;;6.10;99.90;;;;;;4958256;28;20037;-93
2023/12/16 09:51:30;;;;;;;22.40;11.80;;;6.10;99.90;;;;;;4963817;28;20023;-92
2023/12/16 09:53:56;;;;;;;30.27;12.93;;;6.20;99.90;;;;;;4974270;28;20030;-94
2023/12/16 09:56:23;;;;;;;25.35;14.95;;;6.10;99.90;;;;;;4967390;28;20027;-92
2023/12/16 09:58:51;;;;;;;24.42;13.70;;;6.20;99.90;;;;;;4969805;28;20031;-93
2023/12/16 10:01:17;;;;;;;22.00;13.30;;;6.20;99.90;;;;;;4965087;28;20030;-92
2023/12/16 10:03:47;;;;;;;21.65;12.50;;;6.30;99.90;;;;;;4960911;28;20035;-92
2023/12/16 10:06:13;;;;;;;23.33;14.60;;;6.30;99.90;;;;;;4945731;29;20465;-90
2023/12/16 10:08:42;;;;;;;24.58;12.50;;;6.40;99.90;;;;;;4955647;28;20019;-91
2023/12/16 10:11:08;;;;;;;24.92;13.23;;;6.50;99.90;;;;;;4963360;28;20043;-92
2023/12/16 10:14:00;;;;;;;22.33;12.07;;;6.50;99.90;;;;;;4955086;28;20051;-91
2023/12/16 10:16:26;;;;;;;23.23;12.05;;;6.50;99.90;;;;;;4957526;28;20082;-90
2023/12/16 10:18:53;;;;;;;22.15;11.63;;;6.50;99.90;;;;;;4965213;28;20052;-93
2023/12/16 10:21:24;;;;;;;25.90;13.10;;;6.40;99.90;;;;;;4958484;28;20023;-91
2023/12/16 10:23:50;;;;;;;23.90;12.82;;;6.50;99.90;;;;;;4959710;28;20082;-91
2023/12/16 10:26:16;;;;;;;24.42;13.35;;;6.50;99.90;;;;;;4961832;28;20035;-92
2023/12/16 10:28:50;;;;;;;29.58;13.98;;;6.50;99.90;;;;;;4962464;28;20042;-91
2023/12/16 10:31:18;;;;;;;24.20;13.40;;;6.50;99.90;;;;;;4966410;28;20036;-90
2023/12/16 10:33:44;;;;;;;;;;;6.70;99.90;;;;;;4950858;29;20027;-90
2023/12/16 10:36:10;;;;;;;39.70;18.80;;;6.70;99.90;;;;;;4947060;29;20467;-90
2023/12/16 10:38:36;;;;;;;45.95;21.40;;;6.70;99.90;;;;;;4944734;28;20030;-90
2023/12/16 10:41:02;;;;;;;25.63;15.73;;;6.70;99.90;;;;;;4965970;28;20119;-91
2023/12/16 10:43:28;;;;;;;29.80;16.52;;;6.80;99.90;;;;;;4934335;29;20027;-90
2023/12/16 10:45:54;;;;;;;24.83;13.02;;;6.80;99.90;;;;;;4964512;28;20031;-91
2023/12/16 10:48:29;;;;;;;35.75;20.73;;;6.90;99.90;;;;;;4963184;28;20028;-90
2023/12/16 10:51:02;;;;;;;26.63;14.10;;;6.90;99.90;;;;;;4944272;29;20122;-92
2023/12/16 10:53:40;;;;;;;24.42;13.68;;;7.00;99.90;;;;;;4962053;28;20025;-90
2023/12/16 10:56:37;;;;;;;23.92;13.52;;;7.00;99.90;;;;;;4961087;28;20664;-90
2023/12/16 10:59:18;;;;;;;25.33;13.40;;;7.00;99.90;;;;;;4935615;29;20039;-89
2023/12/16 11:01:56;;;;;;;29.60;16.48;;;7.10;99.90;;;;;;4938763;28;20491;-91
2023/12/16 11:04:31;;;;;;;23.63;12.77;;;7.20;99.90;;;;;;4972207;28;20065;-90
2023/12/16 11:07:12;;;;;;;29.42;14.18;;;7.20;99.90;;;;;;4965571;28;20026;-91
2023/12/16 11:09:40;;;;;;;22.02;13.80;;;7.20;99.90;;;;;;4945954;29;20028;-90
2023/12/16 11:12:07;;;;;;;23.58;12.70;;;7.20;99.90;;;;;;4945394;28;20114;-90
2023/12/16 11:14:35;;;;;;;22.85;12.65;;;7.30;99.90;;;;;;4936675;29;20028;-91
2023/12/16 11:17:19;;;;;;;25.58;12.25;;;7.40;99.90;;;;;;4961107;29;20021;-91
2023/12/16 11:20:02;;;;;;;25.30;12.98;;;7.40;99.90;;;;;;4960172;29;20034;-89
2023/12/16 11:22:27;;;;;;;30.10;14.18;;;7.40;99.90;;;;;;4954757;28;20046;-92
2023/12/16 11:24:56;;;;;;;23.55;12.43;;;7.40;99.90;;;;;;4967647;28;20034;-94
2023/12/16 11:27:22;;;;;;;26.95;13.80;;;7.40;99.90;;;;;;4966993;28;20023;-91
2023/12/16 11:29:48;;;;;;;25.42;13.15;;;7.40;99.90;;;;;;4983864;28;20094;-90
2023/12/16 11:32:14;;;;;;;25.70;14.02;;;7.40;99.90;;;;;;4972723;28;20019;-94
2023/12/16 11:34:50;;;;;;;22.50;11.52;;;7.50;99.90;;;;;;4953464;28;20078;-92
2023/12/16 11:37:34;;;;;;;25.17;12.80;;;7.50;99.90;;;;;;4966679;28;20035;-92
2023/12/16 11:40:03;;;;;;;21.17;12.73;;;7.60;99.90;;;;;;4958025;29;20048;-91
2023/12/16 11:42:44;;;;;;;22.90;13.20;;;7.70;99.90;;;;;;4964823;29;20160;-91
2023/12/16 11:45:09;;;;;;;21.02;11.57;;;7.90;99.90;;;;;;4969785;28;20027;-91
2023/12/16 11:47:35;;;;;;;23.95;13.93;;;8.40;99.90;;;;;;4973396;28;20066;-93
2023/12/16 11:50:00;;;;;;;22.60;11.20;;;8.60;99.90;;;;;;4969994;28;20036;-94
2023/12/16 11:52:29;;;;;;;22.40;11.60;;;9.10;99.90;;;;;;4979856;28;20027;-90
2023/12/16 11:54:56;;;;;;;19.23;11.35;;;9.60;97.80;;;;;;4952065;28;20050;-90
2023/12/16 11:57:26;;;;;;;18.05;10.65;;;9.90;92.40;;;;;;4963997;28;20034;-92
2023/12/16 11:59:53;;;;;;;16.75;9.73;;;10.10;91.70;;;;;;4965633;28;20035;-91
2023/12/16 12:02:20;;;;;;;20.77;11.70;;;10.20;92.80;;;;;;4965280;28;20028;-91
2023/12/16 12:04:48;;;;;;;21.35;13.35;;;10.40;89.20;;;;;;4958428;29;20062;-92
2023/12/16 12:07:14;;;;;;;25.40;13.30;;;10.70;89.00;;;;;;4973748;28;20163;-91
2023/12/16 12:09:44;;;;;;;18.02;11.20;;;10.90;87.80;;;;;;4978004;28;20033;-90
2023/12/16 12:12:11;;;;;;;17.38;11.02;;;11.10;84.40;;;;;;4977228;28;20075;-90
2023/12/16 12:14:41;;;;;;;17.40;10.95;;;11.10;81.20;;;;;;4951705;29;20058;-91
2023/12/16 12:17:07;;;;;;;19.27;10.73;;;11.10;83.40;;;;;;4979702;28;20083;-92
2023/12/16 12:19:54;;;;;;;22.27;13.18;;;11.10;83.80;;;;;;4950841;29;20031;-92
2023/12/16 12:22:20;;;;;;;22.88;11.07;;;11.30;82.90;;;;;;4932357;29;20034;-91
2023/12/16 12:24:46;;;;;;;17.30;9.05;;;11.60;80.50;;;;;;4982163;28;20027;-91
2023/12/16 12:27:11;;;;;;;16.75;8.05;;;11.80;75.90;;;;;;4959269;28;20031;-92
2023/12/16 12:29:56;;;;;;;17.48;9.75;;;11.90;74.00;;;;;;4973567;28;20033;-92
2023/12/16 12:32:27;;;;;;;12.45;7.25;;;12.40;73.10;;;;;;4961209;28;20031;-94
2023/12/16 12:35:13;;;;;;;14.30;8.25;;;12.30;67.90;;;;;;4947619;28;20019;-95
2023/12/16 12:37:46;;;;;;;13.30;7.78;;;12.10;68.60;;;;;;4970572;28;20039;-95